createdAt,value
2022-08-09T00:00:13.817Z,15.51
2022-08-09T00:02:42.757Z,15.43
2022-08-09T00:06:17.818Z,15.32
2022-08-09T00:08:01.502Z,15.35
2022-08-09T00:10:28.448Z,15.27
2022-08-09T00:12:55.058Z,15.51
2022-08-09T00:15:26.584Z,15.11
2022-08-09T00:18:10.687Z,14.78
2022-08-09T00:20:41.414Z,14.83
2022-08-09T00:23:57.792Z,14.89
2022-08-09T00:26:05.063Z,14.99
2022-08-09T00:28:32.308Z,15.25
2022-08-09T00:31:09.298Z,15.05
2022-08-09T00:33:53.050Z,15.15
2022-08-09T00:36:20.852Z,15.08
2022-08-09T00:38:50.675Z,15.30
2022-08-09T00:44:11.082Z,15.41
2022-08-09T00:44:24.593Z,15.35
2022-08-09T00:46:57.891Z,15.15
2022-08-09T00:49:36.909Z,15.20
2022-08-09T00:52:06.161Z,14.91
2022-08-09T00:54:43.074Z,14.62
2022-08-09T00:57:11.720Z,14.56
2022-08-09T00:59:46.890Z,14.73
2022-08-09T01:02:22.222Z,14.58
2022-08-09T01:05:14.375Z,14.46
2022-08-09T01:08:04.872Z,14.62
2022-08-09T01:10:40.767Z,14.93
2022-08-09T01:13:22.364Z,14.89
2022-08-09T01:15:52.994Z,15.04
2022-08-09T01:18:30.588Z,14.86
2022-08-09T01:21:28.208Z,14.86
2022-08-09T01:24:50.451Z,14.53
2022-08-09T01:27:23.731Z,14.75
2022-08-09T01:30:02.283Z,14.65
2022-08-09T01:32:35.949Z,14.55
2022-08-09T01:35:29.084Z,14.48
2022-08-09T01:38:09.630Z,14.29
2022-08-09T01:40:43.028Z,14.25
2022-08-09T01:43:11.557Z,13.94
2022-08-09T01:45:44.837Z,13.88
2022-08-09T01:48:17.371Z,13.89
2022-08-09T01:50:55.232Z,13.95
2022-08-09T01:53:23.807Z,13.95
2022-08-09T01:55:57.170Z,13.95
2022-08-09T01:58:27.295Z,13.79
2022-08-09T02:00:57.256Z,13.80
2022-08-09T02:03:25.029Z,13.80
2022-08-09T02:06:06.124Z,13.94
2022-08-09T02:08:57.188Z,13.65
2022-08-09T02:11:42.738Z,13.82
2022-08-09T02:14:15.043Z,13.74
2022-08-09T02:17:15.099Z,13.67
2022-08-09T02:19:43.276Z,13.73
2022-08-09T02:22:36.472Z,13.96
2022-08-09T02:25:10.252Z,13.88
2022-08-09T02:28:00.558Z,13.78
2022-08-09T02:30:37.915Z,13.70
2022-08-09T02:33:14.588Z,13.53
2022-08-09T02:36:02.956Z,13.74
2022-08-09T02:38:39.084Z,13.98
2022-08-09T02:41:12.989Z,13.82
2022-08-09T02:43:54.928Z,13.74
2022-08-09T02:46:27.592Z,13.57
2022-08-09T02:48:58.936Z,13.49
2022-08-09T02:51:28.040Z,13.47
2022-08-09T02:54:06.485Z,13.35
2022-08-09T02:56:36.418Z,13.31
2022-08-09T02:59:06.296Z,13.29
2022-08-09T03:01:43.091Z,13.22
2022-08-09T03:04:26.247Z,13.31
2022-08-09T03:06:59.839Z,13.44
2022-08-09T03:09:43.857Z,13.63
2022-08-09T03:12:23.378Z,13.56
2022-08-09T03:14:52.343Z,13.69
2022-08-09T03:17:26.428Z,13.28
2022-08-09T03:20:03.046Z,13.30
2022-08-09T03:22:41.746Z,13.20
2022-08-09T03:25:25.978Z,13.19
2022-08-09T03:28:01.797Z,13.21
2022-08-09T03:30:33.410Z,13.20
2022-08-09T03:33:17.660Z,12.99
2022-08-09T03:36:13.115Z,13.01
2022-08-09T03:38:42.538Z,13.00
2022-08-09T03:41:16.056Z,13.13
2022-08-09T03:44:02.861Z,13.00
2022-08-09T03:46:31.910Z,13.11
2022-08-09T03:49:04.251Z,12.92
2022-08-09T03:51:55.661Z,13.05
2022-08-09T03:54:31.281Z,13.04
2022-08-09T03:57:12.478Z,13.06
2022-08-09T03:59:54.530Z,12.99
2022-08-09T04:02:26.755Z,13.10
2022-08-09T04:04:56.825Z,13.05
2022-08-09T04:07:46.974Z,13.33
2022-08-09T04:10:13.203Z,13.03
2022-08-09T04:12:44.648Z,13.08
2022-08-09T04:15:29.450Z,12.96
2022-08-09T04:17:58.860Z,12.87
2022-08-09T04:20:25.983Z,12.90
2022-08-09T04:22:53.415Z,12.89
2022-08-09T04:25:20.800Z,13.23
2022-08-09T04:27:49.101Z,13.45
2022-08-09T04:30:20.911Z,12.91
2022-08-09T04:32:51.092Z,13.46
2022-08-09T04:35:18.736Z,13.14
2022-08-09T04:37:49.628Z,13.38
2022-08-09T04:40:19.532Z,13.40
2022-08-09T04:43:03.571Z,13.09
2022-08-09T04:45:31.070Z,12.96
2022-08-09T04:48:07.977Z,13.19
2022-08-09T04:50:38.175Z,13.30
2022-08-09T04:53:11.642Z,13.64
2022-08-09T04:55:57.510Z,13.36
2022-08-09T04:58:25.970Z,13.26
2022-08-09T05:00:54.455Z,13.41
2022-08-09T05:03:41.131Z,13.41
2022-08-09T05:06:18.273Z,13.53
2022-08-09T05:09:00.787Z,13.83
2022-08-09T05:11:32.278Z,14.07
2022-08-09T05:14:06.151Z,13.92
2022-08-09T05:16:58.290Z,14.12
2022-08-09T05:19:24.491Z,13.96
2022-08-09T05:21:55.428Z,14.13
2022-08-09T05:24:24.097Z,14.11
2022-08-09T05:26:52.992Z,14.48
2022-08-09T05:29:21.472Z,14.40
2022-08-09T05:31:57.482Z,14.52
2022-08-09T05:34:32.683Z,14.53
2022-08-09T05:37:05.273Z,14.66
2022-08-09T05:39:42.706Z,14.98
2022-08-09T05:42:17.361Z,15.11
2022-08-09T05:44:50.718Z,14.74
2022-08-09T05:47:19.311Z,15.17
2022-08-09T05:50:23.579Z,15.34
2022-08-09T05:52:36.294Z,15.43
2022-08-09T05:55:08.838Z,15.19
2022-08-09T05:57:51.145Z,15.12
2022-08-09T06:00:28.717Z,15.21
2022-08-09T06:03:00.476Z,15.29
2022-08-09T06:05:50.241Z,15.50
2022-08-09T06:08:19.831Z,15.72
2022-08-09T06:10:51.509Z,15.93
2022-08-09T06:13:18.768Z,16.08
2022-08-09T06:15:51.617Z,16.13
2022-08-09T06:18:25.507Z,16.33
2022-08-09T06:20:57.041Z,16.19
2022-08-09T06:23:54.933Z,16.31
2022-08-09T06:26:20.875Z,16.50
2022-08-09T06:29:00.190Z,16.59
2022-08-09T06:31:31.194Z,16.81
2022-08-09T06:34:06.567Z,16.87
2022-08-09T06:36:34.072Z,17.00
2022-08-09T06:39:02.350Z,17.09
2022-08-09T06:41:40.557Z,16.94
2022-08-09T06:44:18.319Z,17.29
2022-08-09T06:46:45.766Z,17.34
2022-08-09T06:49:12.788Z,17.56
2022-08-09T06:51:43.011Z,17.66
2022-08-09T06:54:14.647Z,17.99
2022-08-09T06:56:45.563Z,18.01
2022-08-09T07:00:50.915Z,18.18
2022-08-09T07:02:03.935Z,18.08
2022-08-09T07:04:32.070Z,18.21
2022-08-09T07:07:00.120Z,18.25
2022-08-09T07:09:57.035Z,18.35
2022-08-09T07:12:17.892Z,18.64
2022-08-09T07:14:50.868Z,18.64
2022-08-09T07:17:19.882Z,18.88
2022-08-09T07:19:48.140Z,19.13
2022-08-09T07:22:18.288Z,19.16
2022-08-09T07:24:49.379Z,19.37
2022-08-09T07:27:26.710Z,19.33
2022-08-09T07:30:02.433Z,19.49
2022-08-09T07:32:32.282Z,19.68
2022-08-09T07:35:02.700Z,19.53
2022-08-09T07:37:43.566Z,19.66
2022-08-09T07:40:13.276Z,19.89
2022-08-09T07:43:00.540Z,19.93
2022-08-09T07:45:37.336Z,19.99
2022-08-09T07:48:07.191Z,20.10
2022-08-09T07:50:36.831Z,20.33
2022-08-09T07:53:05.191Z,20.49
2022-08-09T07:55:41.505Z,20.49
2022-08-09T07:58:21.679Z,20.59
2022-08-09T08:00:59.218Z,20.55
2022-08-09T08:03:33.482Z,20.65
2022-08-09T08:06:05.044Z,20.59
2022-08-09T08:09:00.088Z,20.83
2022-08-09T08:12:12.058Z,20.88
2022-08-09T08:14:06.611Z,20.88
2022-08-09T08:16:34.610Z,20.90
2022-08-09T08:19:03.049Z,20.85
2022-08-09T08:21:30.649Z,21.03
2022-08-09T08:23:57.483Z,20.98
2022-08-09T08:26:55.022Z,21.21
2022-08-09T08:29:20.320Z,21.41
2022-08-09T08:32:03.497Z,21.32
2022-08-09T08:34:31.478Z,21.44
2022-08-09T08:37:01.374Z,21.60
2022-08-09T08:39:28.357Z,21.63
2022-08-09T08:41:55.210Z,21.63
2022-08-09T08:44:29.764Z,21.56
2022-08-09T08:47:04.629Z,21.89
2022-08-09T08:49:48.221Z,21.99
2022-08-09T08:52:58.201Z,22.04
2022-08-09T08:55:10.382Z,21.99
2022-08-09T08:57:38.014Z,21.84
2022-08-09T09:00:20.381Z,22.00
2022-08-09T09:03:02.822Z,22.00
2022-08-09T09:06:01.063Z,22.30
2022-08-09T09:08:30.588Z,22.12
2022-08-09T09:11:02.732Z,22.38
2022-08-09T09:13:41.910Z,22.48
2022-08-09T09:16:18.842Z,22.50
2022-08-09T09:19:21.472Z,22.72
2022-08-09T09:22:04.174Z,22.81
2022-08-09T09:24:43.203Z,22.86
2022-08-09T09:27:21.978Z,22.96
2022-08-09T09:30:22.772Z,23.22
2022-08-09T09:33:15.625Z,23.21
2022-08-09T09:36:11.642Z,23.40
2022-08-09T09:38:53.092Z,23.25
2022-08-09T09:41:33.261Z,23.33
2022-08-09T09:44:25.376Z,23.54
2022-08-09T09:46:57.113Z,23.28
2022-08-09T09:49:50.053Z,23.75
2022-08-09T09:52:36.121Z,23.70
2022-08-09T09:55:27.818Z,23.46
2022-08-09T09:58:18.776Z,23.69
2022-08-09T10:00:58.949Z,23.80
2022-08-09T10:03:58.103Z,24.19
2022-08-09T10:06:42.883Z,24.23
2022-08-09T10:09:22.930Z,24.14
2022-08-09T10:12:07.645Z,24.09
2022-08-09T10:14:43.989Z,24.01
2022-08-09T10:17:24.295Z,24.18
2022-08-09T10:20:26.908Z,24.54
2022-08-09T10:23:16.977Z,24.53
2022-08-09T10:26:06.553Z,24.39
2022-08-09T10:28:36.617Z,24.49
2022-08-09T10:34:10.710Z,24.39
2022-08-09T10:36:39.931Z,24.68
2022-08-09T10:39:15.768Z,24.62
2022-08-09T10:41:47.781Z,24.83
2022-08-09T10:44:19.240Z,25.05
2022-08-09T10:48:14.331Z,25.04
2022-08-09T10:50:14.837Z,24.71
2022-08-09T10:52:59.961Z,24.95
2022-08-09T10:55:28.993Z,24.94
2022-08-09T10:58:33.719Z,25.08
2022-08-09T11:03:03.105Z,25.20
2022-08-09T11:04:20.133Z,25.29
2022-08-09T11:07:03.611Z,25.12
2022-08-09T11:09:47.805Z,25.28
2022-08-09T11:12:26.638Z,25.25
2022-08-09T11:14:58.938Z,25.40
2022-08-09T11:17:26.383Z,25.84
2022-08-09T11:20:11.837Z,25.59
2022-08-09T11:22:56.932Z,25.54
2022-08-09T11:25:44.773Z,25.55
2022-08-09T11:28:56.284Z,25.51
2022-08-09T11:31:53.050Z,25.34
2022-08-09T11:34:39.956Z,25.45
2022-08-09T11:37:08.883Z,25.54
2022-08-09T11:40:02.966Z,25.58
2022-08-09T11:42:51.421Z,25.54
2022-08-09T11:45:43.207Z,25.64
2022-08-09T11:48:24.719Z,25.55
2022-08-09T11:53:06.296Z,25.77
2022-08-09T11:54:00.670Z,26.09
2022-08-09T11:56:41.927Z,26.26
2022-08-09T11:59:12.039Z,26.41
2022-08-09T12:02:17.808Z,25.94
2022-08-09T12:04:36.985Z,25.59
2022-08-09T12:07:07.737Z,25.84
2022-08-09T12:09:36.257Z,25.68
2022-08-09T12:12:20.360Z,25.85
2022-08-09T12:15:07.659Z,25.79
2022-08-09T12:17:43.595Z,26.07
2022-08-09T12:20:22.115Z,25.88
2022-08-09T12:23:00.688Z,25.87
2022-08-09T12:25:37.087Z,26.35
2022-08-09T12:29:10.810Z,26.62
2022-08-09T12:31:11.181Z,26.44
2022-08-09T12:34:00.857Z,26.51
2022-08-09T12:36:32.153Z,26.61
2022-08-09T12:39:01.375Z,26.18
2022-08-09T12:41:39.056Z,26.29
2022-08-09T12:44:10.236Z,26.41
2022-08-09T12:46:48.647Z,26.69
2022-08-09T12:49:16.872Z,26.65
2022-08-09T12:52:01.131Z,26.63
2022-08-09T12:54:47.745Z,26.43
2022-08-09T12:57:38.605Z,26.77
2022-08-09T13:00:25.553Z,26.66
2022-08-09T13:03:00.619Z,27.10
2022-08-09T13:05:52.409Z,26.50
2022-08-09T13:08:40.062Z,26.83
2022-08-09T13:11:23.230Z,26.65
2022-08-09T13:14:41.697Z,26.32
2022-08-09T13:16:52.319Z,26.31
2022-08-09T13:20:06.979Z,26.67
2022-08-09T13:22:45.489Z,26.94
2022-08-09T13:25:13.965Z,26.30
2022-08-09T13:27:48.278Z,26.69
2022-08-09T13:30:49.944Z,27.63
2022-08-09T13:33:12.003Z,27.31
2022-08-09T13:36:24.762Z,27.71
2022-08-09T13:38:57.257Z,27.40
2022-08-09T13:41:57.791Z,26.99
2022-08-09T13:44:16.304Z,26.97
2022-08-09T13:47:18.478Z,26.53
2022-08-09T13:49:37.573Z,26.68
2022-08-09T13:52:08.964Z,26.84
2022-08-09T13:54:36.535Z,26.83
2022-08-09T13:57:14.455Z,26.78
2022-08-09T13:59:58.116Z,27.09
2022-08-09T14:02:35.412Z,27.33
2022-08-09T14:05:03.091Z,27.37
2022-08-09T14:07:41.072Z,27.11
2022-08-09T14:10:17.334Z,26.88
2022-08-09T14:12:58.904Z,26.91
2022-08-09T14:16:09.809Z,26.79
2022-08-09T14:18:19.303Z,26.76
2022-08-09T14:20:48.854Z,26.77
2022-08-09T14:23:20.318Z,27.27
2022-08-09T14:26:05.850Z,30.71
2022-08-09T14:28:33.336Z,32.73
2022-08-09T14:30:59.999Z,33.35
2022-08-09T14:33:26.871Z,31.77
2022-08-09T14:35:55.798Z,31.55
2022-08-09T14:38:22.510Z,31.94
2022-08-09T14:41:02.034Z,31.65
2022-08-09T14:43:47.565Z,32.12
2022-08-09T14:46:58.196Z,32.04
2022-08-09T14:49:10.585Z,32.03
2022-08-09T14:51:42.208Z,32.96
2022-08-09T14:54:09.744Z,33.89
2022-08-09T14:56:57.262Z,31.56
2022-08-09T14:59:23.509Z,32.83
2022-08-09T15:01:50.464Z,32.09
2022-08-09T15:04:17.131Z,31.70
2022-08-09T15:06:49.432Z,32.47
2022-08-09T15:09:16.798Z,31.83
2022-08-09T15:12:04.790Z,31.84
2022-08-09T15:14:38.198Z,32.14
2022-08-09T15:17:09.786Z,34.74
2022-08-09T15:19:54.542Z,36.75
2022-08-09T15:22:26.078Z,37.11
2022-08-09T15:24:54.380Z,33.59
2022-08-09T15:27:21.959Z,33.85
2022-08-09T15:30:56.258Z,33.27
2022-08-09T15:32:36.299Z,34.27
2022-08-09T15:35:40.367Z,33.03
2022-08-09T15:37:57.026Z,32.83
2022-08-09T15:40:38.008Z,33.49
2022-08-09T15:43:13.511Z,31.76
2022-08-09T15:45:51.916Z,32.11
2022-08-09T15:48:30.586Z,30.97
2022-08-09T15:50:59.368Z,33.49
2022-08-09T15:54:07.052Z,33.80
2022-08-09T15:56:23.418Z,33.26
2022-08-09T15:58:56.761Z,34.09
2022-08-09T16:01:23.543Z,33.36
2022-08-09T16:03:50.815Z,33.44
2022-08-09T16:06:35.462Z,33.90
2022-08-09T16:09:05.738Z,32.70
2022-08-09T16:11:33.395Z,33.15
2022-08-09T16:14:06.948Z,34.57
2022-08-09T16:16:37.242Z,33.52
2022-08-09T16:19:07.643Z,33.36
2022-08-09T16:21:35.504Z,32.29
2022-08-09T16:24:19.939Z,31.86
2022-08-09T16:26:53.687Z,31.01
2022-08-09T16:29:37.355Z,31.70
2022-08-09T16:32:20.130Z,33.00
2022-08-09T16:34:56.829Z,34.69
2022-08-09T16:37:55.626Z,33.00
2022-08-09T16:40:20.453Z,31.96
2022-08-09T16:42:57.528Z,30.24
2022-08-09T16:45:24.227Z,30.57
2022-08-09T16:48:39.962Z,31.31
2022-08-09T16:50:42.155Z,32.15
2022-08-09T16:53:32.418Z,33.97
2022-08-09T16:56:07.653Z,34.03
2022-08-09T16:58:37.169Z,33.99
2022-08-09T17:01:07.399Z,32.41
2022-08-09T17:03:34.804Z,32.05
2022-08-09T17:06:07.399Z,30.78
2022-08-09T17:09:03.197Z,28.12
2022-08-09T17:11:32.854Z,27.47
2022-08-09T17:14:26.017Z,27.27
2022-08-09T17:17:02.672Z,26.76
2022-08-09T17:19:46.432Z,26.10
2022-08-09T17:22:29.010Z,26.15
2022-08-09T17:25:02.706Z,25.91
2022-08-09T17:27:34.717Z,25.79
2022-08-09T17:30:14.094Z,25.83
2022-08-09T17:32:45.477Z,25.60
2022-08-09T17:35:14.451Z,25.47
2022-08-09T17:38:11.448Z,25.09
2022-08-09T17:40:31.913Z,24.95
2022-08-09T17:43:11.163Z,25.00
2022-08-09T17:46:03.766Z,24.85
2022-08-09T17:48:31.975Z,24.82
2022-08-09T17:50:59.536Z,24.54
2022-08-09T17:53:37.647Z,24.58
2022-08-09T17:56:10.809Z,24.35
2022-08-09T17:58:37.483Z,24.45
2022-08-09T18:01:04.184Z,24.34
2022-08-09T18:03:31.902Z,24.28
2022-08-09T18:06:00.770Z,24.24
2022-08-09T18:08:28.139Z,24.14
2022-08-09T18:11:02.279Z,24.08
2022-08-09T18:13:43.477Z,23.93
2022-08-09T18:16:29.263Z,23.94
2022-08-09T18:18:57.243Z,23.84
2022-08-09T18:21:26.233Z,23.79
2022-08-09T18:24:10.592Z,23.92
2022-08-09T18:26:41.952Z,23.78
2022-08-09T18:30:35.022Z,23.50
2022-08-09T18:32:05.620Z,23.45
2022-08-09T18:34:35.302Z,23.45
2022-08-09T18:37:03.803Z,23.22
2022-08-09T18:39:32.245Z,22.86
2022-08-09T18:42:05.307Z,22.56
2022-08-09T18:44:35.457Z,22.67
2022-08-09T18:47:08.252Z,22.46
2022-08-09T18:49:43.149Z,22.53
2022-08-09T18:52:13.469Z,22.43
2022-08-09T18:54:42.210Z,22.10
2022-08-09T18:57:19.850Z,21.84
2022-08-09T18:59:56.339Z,21.61
2022-08-09T19:02:32.350Z,21.44
2022-08-09T19:05:19.720Z,21.21
2022-08-09T19:08:04.158Z,21.04
2022-08-09T19:10:39.074Z,20.85
2022-08-09T19:13:20.964Z,20.68
2022-08-09T19:15:58.840Z,20.69
2022-08-09T19:18:35.151Z,20.67
2022-08-09T19:21:09.593Z,20.58
2022-08-09T19:24:37.580Z,20.40
2022-08-09T19:26:31.094Z,20.48
2022-08-09T19:29:15.117Z,20.39
2022-08-09T19:31:46.093Z,20.11
2022-08-09T19:34:21.154Z,20.04
2022-08-09T19:36:53.998Z,19.76
2022-08-09T19:39:43.744Z,19.72
2022-08-09T19:42:08.956Z,19.85
2022-08-09T19:44:41.324Z,20.02
2022-08-09T19:47:08.577Z,19.85
2022-08-09T19:50:10.431Z,19.66
2022-08-09T19:52:26.363Z,19.75
2022-08-09T19:54:53.618Z,19.86
2022-08-09T19:57:25.606Z,19.93
2022-08-09T19:59:59.445Z,19.67
2022-08-09T20:04:16.971Z,19.56
2022-08-09T20:05:23.596Z,19.86
2022-08-09T20:07:59.738Z,19.68
2022-08-09T20:10:36.896Z,19.66
2022-08-09T20:13:05.891Z,19.51
2022-08-09T20:16:38.344Z,19.74
2022-08-09T20:18:22.092Z,19.34
2022-08-09T20:20:51.308Z,19.69
2022-08-09T20:23:19.499Z,19.64
2022-08-09T20:25:52.324Z,19.37
2022-08-09T20:28:24.536Z,19.68
2022-08-09T20:30:58.916Z,19.46
2022-08-09T20:33:25.918Z,19.12
2022-08-09T20:35:53.003Z,19.42
2022-08-09T20:38:33.136Z,19.65
2022-08-09T20:41:09.323Z,19.32
2022-08-09T20:43:36.304Z,18.98
2022-08-09T20:46:33.784Z,18.84
2022-08-09T20:48:50.499Z,19.08
2022-08-09T20:51:24.090Z,19.07
2022-08-09T20:53:50.885Z,18.90
2022-08-09T20:56:21.833Z,18.96
2022-08-09T20:58:54.693Z,18.65
2022-08-09T21:01:34.012Z,18.41
2022-08-09T21:05:51.968Z,18.62
2022-08-09T21:07:12.060Z,18.72
2022-08-09T21:09:56.617Z,18.39
2022-08-09T21:15:14.879Z,18.73
2022-08-09T21:18:22.980Z,18.53
2022-08-09T21:20:30.714Z,18.35
2022-08-09T21:23:00.289Z,18.53
2022-08-09T21:25:55.675Z,18.55
2022-08-09T21:28:33.552Z,18.39
2022-08-09T21:31:17.444Z,18.03
2022-08-09T21:33:52.366Z,18.02
2022-08-09T21:36:28.194Z,17.92
2022-08-09T21:38:57.547Z,17.54
2022-08-09T21:42:06.059Z,17.54
2022-08-09T21:44:33.384Z,17.62
2022-08-09T21:47:04.403Z,17.22
2022-08-09T21:49:39.270Z,17.23
2022-08-09T21:52:15.131Z,17.08
2022-08-09T21:55:03.948Z,17.35
2022-08-09T21:57:38.845Z,17.32
2022-08-09T22:00:32.079Z,17.31
2022-08-09T22:03:05.851Z,17.22
2022-08-09T22:05:37.720Z,17.30
2022-08-09T22:08:11.898Z,17.26
2022-08-09T22:11:49.204Z,17.05
2022-08-09T22:13:34.573Z,17.55
2022-08-09T22:16:08.516Z,17.45
2022-08-09T22:18:53.080Z,17.53
2022-08-09T22:21:24.164Z,17.44
2022-08-09T22:24:01.279Z,17.22
2022-08-09T22:26:35.375Z,17.21
2022-08-09T22:29:09.126Z,16.89
2022-08-09T22:31:44.246Z,16.88
2022-08-09T22:34:17.216Z,16.64
2022-08-09T22:36:47.808Z,16.95
2022-08-09T22:39:55.193Z,16.84
2022-08-09T22:42:03.949Z,16.84
2022-08-09T22:44:33.221Z,16.88
2022-08-09T22:48:16.878Z,16.63
2022-08-09T22:49:52.091Z,16.98
2022-08-09T22:52:19.830Z,16.53
2022-08-09T22:54:47.694Z,16.62
2022-08-09T22:57:14.535Z,16.29
2022-08-09T22:59:58.080Z,16.08
2022-08-09T23:02:27.236Z,16.03
2022-08-09T23:04:55.317Z,16.03
2022-08-09T23:08:27.396Z,16.05
2022-08-09T23:10:30.504Z,16.03
2022-08-09T23:12:58.539Z,15.92
2022-08-09T23:15:26.016Z,15.74
2022-08-09T23:17:52.836Z,15.64
2022-08-09T23:20:19.495Z,15.50
2022-08-09T23:22:46.247Z,15.57
2022-08-09T23:25:12.993Z,15.41
2022-08-09T23:28:14.044Z,15.42
2022-08-09T23:30:26.441Z,15.33
2022-08-09T23:32:53.308Z,15.36
2022-08-09T23:35:19.954Z,15.41
2022-08-09T23:37:46.758Z,15.42
2022-08-09T23:40:13.447Z,15.43
2022-08-09T23:42:40.684Z,15.60
2022-08-09T23:45:08.857Z,15.70
2022-08-09T23:47:35.809Z,16.00
2022-08-09T23:50:03.901Z,15.67
2022-08-09T23:52:30.961Z,15.66
2022-08-09T23:54:58.892Z,15.38
2022-08-09T23:57:25.697Z,15.23
